sensor_id;sensor_type;location;lat;lon;timestamp;temperature;humidity
58933;DHT22;44716;51.022;6.818;2023-08-12T00:00:04;28.50;56.50
58933;DHT22;44716;51.022;6.818;2023-08-12T00:02:37;28.50;56.50
58933;DHT22;44716;51.022;6.818;2023-08-12T00:05:03;28.50;56.50
58933;DHT22;44716;51.022;6.818;2023-08-12T00:07:29;28.50;56.40
58933;DHT22;44716;51.022;6.818;2023-08-12T00:09:55;28.50;56.40
58933;DHT22;44716;51.022;6.818;2023-08-12T00:12:21;28.50;56.40
58933;DHT22;44716;51.022;6.818;2023-08-12T00:14:47;28.50;56.50
58933;DHT22;44716;51.022;6.818;2023-08-12T00:17:12;28.50;56.50
58933;DHT22;44716;51.022;6.818;2023-08-12T00:19:38;28.50;56.60
58933;DHT22;44716;51.022;6.818;2023-08-12T00:22:03;28.50;56.60
58933;DHT22;44716;51.022;6.818;2023-08-12T00:24:30;28.50;56.70
58933;DHT22;44716;51.022;6.818;2023-08-12T00:26:55;28.40;56.60
58933;DHT22;44716;51.022;6.818;2023-08-12T00:29:21;28.40;56.60
58933;DHT22;44716;51.022;6.818;2023-08-12T00:31:46;28.50;56.80
58933;DHT22;44716;51.022;6.818;2023-08-12T00:34:12;28.40;56.60
58933;DHT22;44716;51.022;6.818;2023-08-12T00:36:37;28.50;56.80
58933;DHT22;44716;51.022;6.818;2023-08-12T00:39:03;28.50;56.70
58933;DHT22;44716;51.022;6.818;2023-08-12T00:41:29;28.40;56.60
58933;DHT22;44716;51.022;6.818;2023-08-12T00:43:55;28.50;56.70
58933;DHT22;44716;51.022;6.818;2023-08-12T00:46:21;28.50;56.70
58933;DHT22;44716;51.022;6.818;2023-08-12T00:48:47;28.50;56.60
58933;DHT22;44716;51.022;6.818;2023-08-12T00:51:12;28.50;56.60
58933;DHT22;44716;51.022;6.818;2023-08-12T00:53:38;28.50;56.60
58933;DHT22;44716;51.022;6.818;2023-08-12T00:56:04;28.40;56.50
58933;DHT22;44716;51.022;6.818;2023-08-12T00:58:29;28.40;56.60
58933;DHT22;44716;51.022;6.818;2023-08-12T01:00:55;28.40;56.60
58933;DHT22;44716;51.022;6.818;2023-08-12T01:03:21;28.40;56.60
58933;DHT22;44716;51.022;6.818;2023-08-12T01:05:46;28.40;56.60
58933;DHT22;44716;51.022;6.818;2023-08-12T01:08:12;28.40;56.60
58933;DHT22;44716;51.022;6.818;2023-08-12T01:10:39;28.40;56.70
58933;DHT22;44716;51.022;6.818;2023-08-12T01:13:09;28.40;56.70
58933;DHT22;44716;51.022;6.818;2023-08-12T01:15:38;28.40;56.70
58933;DHT22;44716;51.022;6.818;2023-08-12T01:18:03;28.40;56.70
58933;DHT22;44716;51.022;6.818;2023-08-12T01:20:30;28.40;56.70
58933;DHT22;44716;51.022;6.818;2023-08-12T01:22:57;28.30;56.80
58933;DHT22;44716;51.022;6.818;2023-08-12T01:25:24;28.40;56.80
58933;DHT22;44716;51.022;6.818;2023-08-12T01:27:50;28.40;56.70
58933;DHT22;44716;51.022;6.818;2023-08-12T01:30:15;28.40;56.70
58933;DHT22;44716;51.022;6.818;2023-08-12T01:32:57;28.40;56.70
58933;DHT22;44716;51.022;6.818;2023-08-12T01:35:26;28.40;56.60
58933;DHT22;44716;51.022;6.818;2023-08-12T01:37:52;28.40;56.70
58933;DHT22;44716;51.022;6.818;2023-08-12T01:40:18;28.40;56.70
58933;DHT22;44716;51.022;6.818;2023-08-12T01:42:44;28.40;56.70
58933;DHT22;44716;51.022;6.818;2023-08-12T01:45:10;28.40;56.70
58933;DHT22;44716;51.022;6.818;2023-08-12T01:47:36;28.30;56.60
58933;DHT22;44716;51.022;6.818;2023-08-12T01:50:01;28.40;56.70
58933;DHT22;44716;51.022;6.818;2023-08-12T01:52:27;28.30;56.60
58933;DHT22;44716;51.022;6.818;2023-08-12T01:54:52;28.30;56.60
58933;DHT22;44716;51.022;6.818;2023-08-12T01:57:18;28.30;56.60
58933;DHT22;44716;51.022;6.818;2023-08-12T01:59:43;28.30;56.60
58933;DHT22;44716;51.022;6.818;2023-08-12T02:02:09;28.30;56.60
58933;DHT22;44716;51.022;6.818;2023-08-12T02:04:35;28.30;56.70
58933;DHT22;44716;51.022;6.818;2023-08-12T02:07:02;28.40;56.60
58933;DHT22;44716;51.022;6.818;2023-08-12T02:09:28;28.40;56.60
58933;DHT22;44716;51.022;6.818;2023-08-12T02:11:53;28.40;56.60
58933;DHT22;44716;51.022;6.818;2023-08-12T02:14:19;28.40;56.60
58933;DHT22;44716;51.022;6.818;2023-08-12T02:16:44;28.40;56.60
58933;DHT22;44716;51.022;6.818;2023-08-12T02:19:10;28.40;56.70
58933;DHT22;44716;51.022;6.818;2023-08-12T02:21:35;28.40;56.70
58933;DHT22;44716;51.022;6.818;2023-08-12T02:24:01;28.30;56.70
58933;DHT22;44716;51.022;6.818;2023-08-12T02:26:26;28.30;56.70
58933;DHT22;44716;51.022;6.818;2023-08-12T02:28:52;28.30;56.80
58933;DHT22;44716;51.022;6.818;2023-08-12T02:31:17;28.30;56.80
58933;DHT22;44716;51.022;6.818;2023-08-12T02:33:43;28.40;56.90
58933;DHT22;44716;51.022;6.818;2023-08-12T02:36:08;28.30;56.70
58933;DHT22;44716;51.022;6.818;2023-08-12T02:38:34;28.40;56.90
58933;DHT22;44716;51.022;6.818;2023-08-12T02:41:00;28.30;56.80
58933;DHT22;44716;51.022;6.818;2023-08-12T02:43:25;28.40;56.80
58933;DHT22;44716;51.022;6.818;2023-08-12T02:45:51;28.30;56.90
58933;DHT22;44716;51.022;6.818;2023-08-12T02:48:16;28.30;56.80
58933;DHT22;44716;51.022;6.818;2023-08-12T02:50:42;28.30;57.00
58933;DHT22;44716;51.022;6.818;2023-08-12T02:53:08;28.30;56.90
58933;DHT22;44716;51.022;6.818;2023-08-12T02:55:33;28.30;56.90
58933;DHT22;44716;51.022;6.818;2023-08-12T02:57:59;28.30;56.90
58933;DHT22;44716;51.022;6.818;2023-08-12T03:00:25;28.30;56.90
58933;DHT22;44716;51.022;6.818;2023-08-12T03:02:50;28.30;57.00
58933;DHT22;44716;51.022;6.818;2023-08-12T03:05:16;28.30;57.00
58933;DHT22;44716;51.022;6.818;2023-08-12T03:07:42;28.30;57.00
58933;DHT22;44716;51.022;6.818;2023-08-12T03:10:07;28.30;57.00
58933;DHT22;44716;51.022;6.818;2023-08-12T03:12:34;28.30;57.00
58933;DHT22;44716;51.022;6.818;2023-08-12T03:15:00;28.30;57.10
58933;DHT22;44716;51.022;6.818;2023-08-12T03:17:25;28.30;57.10
58933;DHT22;44716;51.022;6.818;2023-08-12T03:19:51;28.30;57.10
58933;DHT22;44716;51.022;6.818;2023-08-12T03:22:16;28.30;57.10
58933;DHT22;44716;51.022;6.818;2023-08-12T03:24:42;28.30;57.20
58933;DHT22;44716;51.022;6.818;2023-08-12T03:27:07;28.20;57.10
58933;DHT22;44716;51.022;6.818;2023-08-12T03:29:33;28.30;57.10
58933;DHT22;44716;51.022;6.818;2023-08-12T03:31:58;28.20;57.10
58933;DHT22;44716;51.022;6.818;2023-08-12T03:34:24;28.20;57.10
58933;DHT22;44716;51.022;6.818;2023-08-12T03:36:50;28.20;57.10
58933;DHT22;44716;51.022;6.818;2023-08-12T03:39:15;28.20;57.10
58933;DHT22;44716;51.022;6.818;2023-08-12T03:41:42;28.20;57.10
58933;DHT22;44716;51.022;6.818;2023-08-12T03:44:08;28.20;57.10
58933;DHT22;44716;51.022;6.818;2023-08-12T03:46:33;28.20;57.10
58933;DHT22;44716;51.022;6.818;2023-08-12T03:48:59;28.20;57.20
58933;DHT22;44716;51.022;6.818;2023-08-12T03:51:25;28.20;57.10
58933;DHT22;44716;51.022;6.818;2023-08-12T03:53:50;28.20;57.20
58933;DHT22;44716;51.022;6.818;2023-08-12T03:56:16;28.20;57.20
58933;DHT22;44716;51.022;6.818;2023-08-12T03:58:42;28.20;57.30
58933;DHT22;44716;51.022;6.818;2023-08-12T04:01:08;28.20;57.30
58933;DHT22;44716;51.022;6.818;2023-08-12T04:03:33;28.20;57.30
58933;DHT22;44716;51.022;6.818;2023-08-12T04:05:59;28.10;57.20
58933;DHT22;44716;51.022;6.818;2023-08-12T04:08:24;28.20;57.30
58933;DHT22;44716;51.022;6.818;2023-08-12T04:10:50;28.20;57.30
58933;DHT22;44716;51.022;6.818;2023-08-12T04:13:16;28.20;57.20
58933;DHT22;44716;51.022;6.818;2023-08-12T04:15:42;28.10;57.10
58933;DHT22;44716;51.022;6.818;2023-08-12T04:18:07;28.20;57.20
58933;DHT22;44716;51.022;6.818;2023-08-12T04:20:33;28.20;57.20
58933;DHT22;44716;51.022;6.818;2023-08-12T04:22:59;28.20;57.10
58933;DHT22;44716;51.022;6.818;2023-08-12T04:25:24;28.20;57.10
58933;DHT22;44716;51.022;6.818;2023-08-12T04:27:50;28.20;57.20
58933;DHT22;44716;51.022;6.818;2023-08-12T04:30:16;28.20;57.10
58933;DHT22;44716;51.022;6.818;2023-08-12T04:32:41;28.20;57.10
58933;DHT22;44716;51.022;6.818;2023-08-12T04:35:07;28.20;57.10
58933;DHT22;44716;51.022;6.818;2023-08-12T04:37:33;28.20;57.10
58933;DHT22;44716;51.022;6.818;2023-08-12T04:39:58;28.10;57.10
58933;DHT22;44716;51.022;6.818;2023-08-12T04:42:24;28.10;57.00
58933;DHT22;44716;51.022;6.818;2023-08-12T04:44:49;28.10;57.00
58933;DHT22;44716;51.022;6.818;2023-08-12T04:47:15;28.10;57.10
58933;DHT22;44716;51.022;6.818;2023-08-12T04:49:41;28.10;57.10
58933;DHT22;44716;51.022;6.818;2023-08-12T04:52:06;28.10;57.10
58933;DHT22;44716;51.022;6.818;2023-08-12T04:54:32;28.10;57.10
58933;DHT22;44716;51.022;6.818;2023-08-12T04:56:58;28.10;57.10
58933;DHT22;44716;51.022;6.818;2023-08-12T04:59:24;28.10;57.10
58933;DHT22;44716;51.022;6.818;2023-08-12T05:01:50;28.10;57.20
58933;DHT22;44716;51.022;6.818;2023-08-12T05:04:16;28.10;57.20
58933;DHT22;44716;51.022;6.818;2023-08-12T05:06:41;28.00;57.20
58933;DHT22;44716;51.022;6.818;2023-08-12T05:09:07;28.10;57.20
58933;DHT22;44716;51.022;6.818;2023-08-12T05:11:32;28.10;57.20
58933;DHT22;44716;51.022;6.818;2023-08-12T05:13:58;28.10;57.20
58933;DHT22;44716;51.022;6.818;2023-08-12T05:16:23;28.10;57.30
58933;DHT22;44716;51.022;6.818;2023-08-12T05:18:49;28.10;57.30
58933;DHT22;44716;51.022;6.818;2023-08-12T05:21:14;28.10;57.40
58933;DHT22;44716;51.022;6.818;2023-08-12T05:23:40;28.10;57.30
58933;DHT22;44716;51.022;6.818;2023-08-12T05:26:05;28.10;57.30
58933;DHT22;44716;51.022;6.818;2023-08-12T05:28:31;28.10;57.30
58933;DHT22;44716;51.022;6.818;2023-08-12T05:30:56;28.10;57.20
58933;DHT22;44716;51.022;6.818;2023-08-12T05:33:22;28.10;57.30
58933;DHT22;44716;51.022;6.818;2023-08-12T05:35:48;28.10;57.40
58933;DHT22;44716;51.022;6.818;2023-08-12T05:38:13;28.00;57.40
58933;DHT22;44716;51.022;6.818;2023-08-12T05:40:39;28.00;57.40
58933;DHT22;44716;51.022;6.818;2023-08-12T05:43:04;28.00;57.40
58933;DHT22;44716;51.022;6.818;2023-08-12T05:45:30;28.10;57.40
58933;DHT22;44716;51.022;6.818;2023-08-12T05:47:55;28.00;57.40
58933;DHT22;44716;51.022;6.818;2023-08-12T05:50:21;28.00;57.40
58933;DHT22;44716;51.022;6.818;2023-08-12T05:52:47;28.00;57.40
58933;DHT22;44716;51.022;6.818;2023-08-12T05:55:12;28.00;57.40
58933;DHT22;44716;51.022;6.818;2023-08-12T05:57:38;28.00;57.40
58933;DHT22;44716;51.022;6.818;2023-08-12T06:00:03;28.00;57.40
58933;DHT22;44716;51.022;6.818;2023-08-12T06:02:29;28.00;57.40
58933;DHT22;44716;51.022;6.818;2023-08-12T06:04:55;28.00;57.40
58933;DHT22;44716;51.022;6.818;2023-08-12T06:07:20;28.00;57.40
58933;DHT22;44716;51.022;6.818;2023-08-12T06:09:46;28.00;57.40
58933;DHT22;44716;51.022;6.818;2023-08-12T06:12:11;28.00;57.40
58933;DHT22;44716;51.022;6.818;2023-08-12T06:14:37;28.00;57.40
58933;DHT22;44716;51.022;6.818;2023-08-12T06:17:02;28.00;57.40
58933;DHT22;44716;51.022;6.818;2023-08-12T06:19:28;28.00;57.40
58933;DHT22;44716;51.022;6.818;2023-08-12T06:21:53;27.90;57.40
58933;DHT22;44716;51.022;6.818;2023-08-12T06:24:19;28.00;57.40
58933;DHT22;44716;51.022;6.818;2023-08-12T06:26:44;27.90;57.50
58933;DHT22;44716;51.022;6.818;2023-08-12T06:29:10;27.90;57.50
58933;DHT22;44716;51.022;6.818;2023-08-12T06:31:35;27.90;57.60
58933;DHT22;44716;51.022;6.818;2023-08-12T06:34:01;27.90;57.60
58933;DHT22;44716;51.022;6.818;2023-08-12T06:36:27;27.90;57.60
58933;DHT22;44716;51.022;6.818;2023-08-12T06:38:52;27.90;57.60
58933;DHT22;44716;51.022;6.818;2023-08-12T06:41:18;27.90;57.60
58933;DHT22;44716;51.022;6.818;2023-08-12T06:43:43;27.90;57.50
58933;DHT22;44716;51.022;6.818;2023-08-12T06:46:09;28.00;57.60
58933;DHT22;44716;51.022;6.818;2023-08-12T06:48:34;27.90;57.60
58933;DHT22;44716;51.022;6.818;2023-08-12T06:51:00;27.90;57.60
58933;DHT22;44716;51.022;6.818;2023-08-12T06:53:29;28.00;57.60
58933;DHT22;44716;51.022;6.818;2023-08-12T06:55:55;27.90;57.70
58933;DHT22;44716;51.022;6.818;2023-08-12T06:58:21;28.00;57.70
58933;DHT22;44716;51.022;6.818;2023-08-12T07:00:46;28.00;57.60
58933;DHT22;44716;51.022;6.818;2023-08-12T07:03:12;28.00;57.70
58933;DHT22;44716;51.022;6.818;2023-08-12T07:05:37;28.00;57.70
58933;DHT22;44716;51.022;6.818;2023-08-12T07:08:03;28.00;57.70
58933;DHT22;44716;51.022;6.818;2023-08-12T07:10:28;27.90;57.70
58933;DHT22;44716;51.022;6.818;2023-08-12T07:12:54;28.00;57.80
58933;DHT22;44716;51.022;6.818;2023-08-12T07:15:20;28.00;57.80
58933;DHT22;44716;51.022;6.818;2023-08-12T07:17:45;27.90;57.80
58933;DHT22;44716;51.022;6.818;2023-08-12T07:20:11;27.90;57.80
58933;DHT22;44716;51.022;6.818;2023-08-12T07:22:36;28.00;58.50
58933;DHT22;44716;51.022;6.818;2023-08-12T07:25:02;28.00;57.80
58933;DHT22;44716;51.022;6.818;2023-08-12T07:27:27;27.90;57.80
58933;DHT22;44716;51.022;6.818;2023-08-12T07:29:53;28.00;57.90
58933;DHT22;44716;51.022;6.818;2023-08-12T07:32:18;28.00;57.90
58933;DHT22;44716;51.022;6.818;2023-08-12T07:34:44;28.00;57.90
58933;DHT22;44716;51.022;6.818;2023-08-12T07:37:10;28.00;57.90
58933;DHT22;44716;51.022;6.818;2023-08-12T07:39:35;27.90;57.80
58933;DHT22;44716;51.022;6.818;2023-08-12T07:42:01;27.90;57.80
58933;DHT22;44716;51.022;6.818;2023-08-12T07:44:26;28.00;57.90
58933;DHT22;44716;51.022;6.818;2023-08-12T07:46:52;27.90;57.80
58933;DHT22;44716;51.022;6.818;2023-08-12T07:49:17;28.00;57.90
58933;DHT22;44716;51.022;6.818;2023-08-12T07:51:43;27.90;57.70
58933;DHT22;44716;51.022;6.818;2023-08-12T07:54:09;27.90;58.40
58933;DHT22;44716;51.022;6.818;2023-08-12T07:56:34;27.90;57.70
58933;DHT22;44716;51.022;6.818;2023-08-12T07:59:00;28.00;57.90
58933;DHT22;44716;51.022;6.818;2023-08-12T08:01:25;28.00;58.40
58933;DHT22;44716;51.022;6.818;2023-08-12T08:03:51;28.00;58.30
58933;DHT22;44716;51.022;6.818;2023-08-12T08:06:16;28.00;58.10
58933;DHT22;44716;51.022;6.818;2023-08-12T08:08:42;27.90;58.20
58933;DHT22;44716;51.022;6.818;2023-08-12T08:11:07;27.90;58.60
58933;DHT22;44716;51.022;6.818;2023-08-12T08:13:33;27.90;58.70
58933;DHT22;44716;51.022;6.818;2023-08-12T08:15:58;27.80;59.10
58933;DHT22;44716;51.022;6.818;2023-08-12T08:18:24;27.80;58.90
58933;DHT22;44716;51.022;6.818;2023-08-12T08:20:49;27.80;59.20
58933;DHT22;44716;51.022;6.818;2023-08-12T08:23:15;27.80;59.00
58933;DHT22;44716;51.022;6.818;2023-08-12T08:25:41;27.80;59.20
58933;DHT22;44716;51.022;6.818;2023-08-12T08:28:06;27.80;59.00
58933;DHT22;44716;51.022;6.818;2023-08-12T08:30:32;27.80;59.10
58933;DHT22;44716;51.022;6.818;2023-08-12T08:32:57;27.80;59.30
58933;DHT22;44716;51.022;6.818;2023-08-12T08:35:23;27.90;59.40
58933;DHT22;44716;51.022;6.818;2023-08-12T08:37:49;27.90;59.50
58933;DHT22;44716;51.022;6.818;2023-08-12T08:40:14;27.90;59.60
58933;DHT22;44716;51.022;6.818;2023-08-12T08:42:40;28.00;59.60
58933;DHT22;44716;51.022;6.818;2023-08-12T08:45:11;28.00;59.10
58933;DHT22;44716;51.022;6.818;2023-08-12T08:47:37;28.10;59.20
58933;DHT22;44716;51.022;6.818;2023-08-12T08:50:03;28.10;58.80
58933;DHT22;44716;51.022;6.818;2023-08-12T08:52:29;28.10;59.00
58933;DHT22;44716;51.022;6.818;2023-08-12T08:54:54;28.10;58.90
58933;DHT22;44716;51.022;6.818;2023-08-12T08:57:20;28.20;58.90
58933;DHT22;44716;51.022;6.818;2023-08-12T08:59:46;28.20;59.10
58933;DHT22;44716;51.022;6.818;2023-08-12T09:02:18;28.20;58.90
58933;DHT22;44716;51.022;6.818;2023-08-12T09:04:44;28.20;59.00
58933;DHT22;44716;51.022;6.818;2023-08-12T09:07:11;28.20;58.90
58933;DHT22;44716;51.022;6.818;2023-08-12T09:09:37;28.20;59.00
58933;DHT22;44716;51.022;6.818;2023-08-12T09:12:03;28.20;58.90
58933;DHT22;44716;51.022;6.818;2023-08-12T09:14:29;28.20;58.90
58933;DHT22;44716;51.022;6.818;2023-08-12T09:16:55;28.20;58.70
58933;DHT22;44716;51.022;6.818;2023-08-12T09:19:21;28.20;58.70
58933;DHT22;44716;51.022;6.818;2023-08-12T09:21:53;28.20;59.00
58933;DHT22;44716;51.022;6.818;2023-08-12T09:24:25;28.20;59.60
58933;DHT22;44716;51.022;6.818;2023-08-12T09:26:52;28.10;59.60
58933;DHT22;44716;51.022;6.818;2023-08-12T09:29:17;28.10;60.00
58933;DHT22;44716;51.022;6.818;2023-08-12T09:31:43;28.00;60.30
58933;DHT22;44716;51.022;6.818;2023-08-12T09:34:08;28.10;60.70
58933;DHT22;44716;51.022;6.818;2023-08-12T09:36:34;28.00;60.70
58933;DHT22;44716;51.022;6.818;2023-08-12T09:39:05;28.00;60.70
58933;DHT22;44716;51.022;6.818;2023-08-12T09:41:31;28.00;60.90
58933;DHT22;44716;51.022;6.818;2023-08-12T09:43:56;28.00;60.70
58933;DHT22;44716;51.022;6.818;2023-08-12T09:46:22;27.90;60.80
58933;DHT22;44716;51.022;6.818;2023-08-12T09:48:51;27.90;61.00
58933;DHT22;44716;51.022;6.818;2023-08-12T09:51:20;28.00;61.00
58933;DHT22;44716;51.022;6.818;2023-08-12T09:53:49;28.00;60.80
58933;DHT22;44716;51.022;6.818;2023-08-12T09:56:17;27.90;60.60
58933;DHT22;44716;51.022;6.818;2023-08-12T09:58:42;28.00;60.50
58933;DHT22;44716;51.022;6.818;2023-08-12T10:01:10;27.90;60.80
58933;DHT22;44716;51.022;6.818;2023-08-12T10:03:36;28.00;60.70
58933;DHT22;44716;51.022;6.818;2023-08-12T10:06:02;28.10;60.40
58933;DHT22;44716;51.022;6.818;2023-08-12T10:08:28;28.20;60.30
58933;DHT22;44716;51.022;6.818;2023-08-12T10:10:54;28.10;60.00
58933;DHT22;44716;51.022;6.818;2023-08-12T10:13:20;28.20;59.90
58933;DHT22;44716;51.022;6.818;2023-08-12T10:15:46;28.20;59.90
58933;DHT22;44716;51.022;6.818;2023-08-12T10:18:12;28.20;59.60
58933;DHT22;44716;51.022;6.818;2023-08-12T10:20:38;28.20;59.50
58933;DHT22;44716;51.022;6.818;2023-08-12T10:23:04;28.30;59.40
58933;DHT22;44716;51.022;6.818;2023-08-12T10:25:33;28.30;59.50
58933;DHT22;44716;51.022;6.818;2023-08-12T10:28:00;28.30;59.30
58933;DHT22;44716;51.022;6.818;2023-08-12T10:30:28;28.10;59.50
58933;DHT22;44716;51.022;6.818;2023-08-12T10:32:53;28.00;59.90
58933;DHT22;44716;51.022;6.818;2023-08-12T10:35:19;28.10;59.90
58933;DHT22;44716;51.022;6.818;2023-08-12T10:37:49;28.00;60.10
58933;DHT22;44716;51.022;6.818;2023-08-12T10:40:19;28.00;60.30
58933;DHT22;44716;51.022;6.818;2023-08-12T10:42:46;27.90;60.20
58933;DHT22;44716;51.022;6.818;2023-08-12T10:45:13;27.90;60.40
58933;DHT22;44716;51.022;6.818;2023-08-12T10:47:43;27.90;60.70
58933;DHT22;44716;51.022;6.818;2023-08-12T10:52:43;27.80;60.40
58933;DHT22;44716;51.022;6.818;2023-08-12T10:55:27;27.90;60.60
58933;DHT22;44716;51.022;6.818;2023-08-12T10:57:53;27.80;60.40
58933;DHT22;44716;51.022;6.818;2023-08-12T11:00:20;27.80;61.10
58933;DHT22;44716;51.022;6.818;2023-08-12T11:02:49;27.80;61.00
58933;DHT22;44716;51.022;6.818;2023-08-12T11:05:16;27.80;61.00
58933;DHT22;44716;51.022;6.818;2023-08-12T11:07:44;27.80;60.70
58933;DHT22;44716;51.022;6.818;2023-08-12T11:10:14;27.80;61.00
58933;DHT22;44716;51.022;6.818;2023-08-12T11:12:41;27.80;61.50
58933;DHT22;44716;51.022;6.818;2023-08-12T11:15:07;27.80;61.50
58933;DHT22;44716;51.022;6.818;2023-08-12T11:19:58;27.80;61.40
58933;DHT22;44716;51.022;6.818;2023-08-12T11:22:24;27.80;60.80
58933;DHT22;44716;51.022;6.818;2023-08-12T11:24:50;27.80;60.80
58933;DHT22;44716;51.022;6.818;2023-08-12T11:27:16;27.70;61.40
58933;DHT22;44716;51.022;6.818;2023-08-12T11:29:41;27.60;61.40
58933;DHT22;44716;51.022;6.818;2023-08-12T11:32:07;27.50;61.50
58933;DHT22;44716;51.022;6.818;2023-08-12T11:34:32;27.60;61.00
58933;DHT22;44716;51.022;6.818;2023-08-12T11:36:58;27.70;60.70
58933;DHT22;44716;51.022;6.818;2023-08-12T11:39:24;27.80;60.40
58933;DHT22;44716;51.022;6.818;2023-08-12T11:41:49;27.80;60.20
58933;DHT22;44716;51.022;6.818;2023-08-12T11:44:15;27.90;60.00
58933;DHT22;44716;51.022;6.818;2023-08-12T11:46:41;27.90;59.80
58933;DHT22;44716;51.022;6.818;2023-08-12T11:49:07;28.00;59.70
58933;DHT22;44716;51.022;6.818;2023-08-12T11:51:33;28.00;59.50
58933;DHT22;44716;51.022;6.818;2023-08-12T11:53:59;28.10;59.50
58933;DHT22;44716;51.022;6.818;2023-08-12T11:56:25;28.10;59.40
58933;DHT22;44716;51.022;6.818;2023-08-12T11:58:51;28.10;59.30
58933;DHT22;44716;51.022;6.818;2023-08-12T12:01:18;28.10;59.30
58933;DHT22;44716;51.022;6.818;2023-08-12T12:03:44;28.10;59.20
58933;DHT22;44716;51.022;6.818;2023-08-12T12:06:11;28.10;59.10
58933;DHT22;44716;51.022;6.818;2023-08-12T12:08:38;28.10;59.00
58933;DHT22;44716;51.022;6.818;2023-08-12T12:11:04;28.10;59.00
58933;DHT22;44716;51.022;6.818;2023-08-12T12:13:30;28.20;59.00
58933;DHT22;44716;51.022;6.818;2023-08-12T12:15:55;28.20;58.90
58933;DHT22;44716;51.022;6.818;2023-08-12T12:18:24;28.20;58.80
58933;DHT22;44716;51.022;6.818;2023-08-12T12:20:57;28.20;58.80
58933;DHT22;44716;51.022;6.818;2023-08-12T12:23:27;28.20;58.70
58933;DHT22;44716;51.022;6.818;2023-08-12T12:26:02;28.20;58.80
58933;DHT22;44716;51.022;6.818;2023-08-12T12:28:28;28.20;58.70
58933;DHT22;44716;51.022;6.818;2023-08-12T12:30:54;28.20;58.60
58933;DHT22;44716;51.022;6.818;2023-08-12T12:33:20;28.20;58.60
58933;DHT22;44716;51.022;6.818;2023-08-12T12:35:45;28.20;58.60
58933;DHT22;44716;51.022;6.818;2023-08-12T12:38:11;28.20;58.50
58933;DHT22;44716;51.022;6.818;2023-08-12T12:40:36;28.30;58.60
58933;DHT22;44716;51.022;6.818;2023-08-12T12:43:03;28.30;58.60
58933;DHT22;44716;51.022;6.818;2023-08-12T12:45:29;28.30;58.50
58933;DHT22;44716;51.022;6.818;2023-08-12T12:47:54;28.30;58.50
58933;DHT22;44716;51.022;6.818;2023-08-12T12:50:20;28.30;58.50
58933;DHT22;44716;51.022;6.818;2023-08-12T12:52:45;28.30;58.40
58933;DHT22;44716;51.022;6.818;2023-08-12T12:55:11;28.30;58.80
58933;DHT22;44716;51.022;6.818;2023-08-12T12:57:36;28.20;59.10
58933;DHT22;44716;51.022;6.818;2023-08-12T13:00:02;28.20;59.30
58933;DHT22;44716;51.022;6.818;2023-08-12T13:02:29;28.10;60.10
58933;DHT22;44716;51.022;6.818;2023-08-12T13:04:55;28.10;60.00
58933;DHT22;44716;51.022;6.818;2023-08-12T13:07:21;27.90;60.80
58933;DHT22;44716;51.022;6.818;2023-08-12T13:09:46;27.80;60.80
58933;DHT22;44716;51.022;6.818;2023-08-12T13:12:12;27.80;60.30
58933;DHT22;44716;51.022;6.818;2023-08-12T13:14:37;27.90;59.90
58933;DHT22;44716;51.022;6.818;2023-08-12T13:17:03;28.00;59.80
58933;DHT22;44716;51.022;6.818;2023-08-12T13:19:28;28.00;59.80
58933;DHT22;44716;51.022;6.818;2023-08-12T13:21:54;28.10;59.50
58933;DHT22;44716;51.022;6.818;2023-08-12T13:24:19;28.10;59.50
58933;DHT22;44716;51.022;6.818;2023-08-12T13:26:45;28.10;59.80
58933;DHT22;44716;51.022;6.818;2023-08-12T13:29:11;28.10;59.40
58933;DHT22;44716;51.022;6.818;2023-08-12T13:31:36;28.10;59.50
58933;DHT22;44716;51.022;6.818;2023-08-12T13:34:02;28.10;59.50
58933;DHT22;44716;51.022;6.818;2023-08-12T13:36:28;28.20;59.50
58933;DHT22;44716;51.022;6.818;2023-08-12T13:38:54;28.10;59.90
58933;DHT22;44716;51.022;6.818;2023-08-12T13:41:20;27.90;60.90
58933;DHT22;44716;51.022;6.818;2023-08-12T13:43:46;27.80;61.40
58933;DHT22;44716;51.022;6.818;2023-08-12T13:46:11;27.60;62.20
58933;DHT22;44716;51.022;6.818;2023-08-12T13:48:37;27.50;62.30
58933;DHT22;44716;51.022;6.818;2023-08-12T13:51:02;27.30;62.70
58933;DHT22;44716;51.022;6.818;2023-08-12T13:53:28;27.50;62.70
58933;DHT22;44716;51.022;6.818;2023-08-12T13:55:54;27.40;62.80
58933;DHT22;44716;51.022;6.818;2023-08-12T13:58:19;27.40;63.30
58933;DHT22;44716;51.022;6.818;2023-08-12T14:00:45;27.40;62.90
58933;DHT22;44716;51.022;6.818;2023-08-12T14:03:11;27.40;63.10
58933;DHT22;44716;51.022;6.818;2023-08-12T14:05:37;27.40;62.90
58933;DHT22;44716;51.022;6.818;2023-08-12T14:08:03;27.40;61.50
58933;DHT22;44716;51.022;6.818;2023-08-12T14:10:28;27.40;61.10
58933;DHT22;44716;51.022;6.818;2023-08-12T14:12:54;27.40;60.20
58933;DHT22;44716;51.022;6.818;2023-08-12T14:15:19;27.30;60.50
58933;DHT22;44716;51.022;6.818;2023-08-12T14:17:45;27.30;60.70
58933;DHT22;44716;51.022;6.818;2023-08-12T14:20:11;27.40;60.60
58933;DHT22;44716;51.022;6.818;2023-08-12T14:22:36;27.50;60.30
58933;DHT22;44716;51.022;6.818;2023-08-12T14:25:03;27.40;60.40
58933;DHT22;44716;51.022;6.818;2023-08-12T14:27:29;27.50;60.20
58933;DHT22;44716;51.022;6.818;2023-08-12T14:29:55;27.60;59.70
58933;DHT22;44716;51.022;6.818;2023-08-12T14:32:20;27.60;59.70
58933;DHT22;44716;51.022;6.818;2023-08-12T14:34:46;27.70;59.60
58933;DHT22;44716;51.022;6.818;2023-08-12T14:37:11;27.60;58.90
58933;DHT22;44716;51.022;6.818;2023-08-12T14:39:37;27.80;58.70
58933;DHT22;44716;51.022;6.818;2023-08-12T14:42:03;27.70;58.40
58933;DHT22;44716;51.022;6.818;2023-08-12T14:44:29;27.80;58.30
58933;DHT22;44716;51.022;6.818;2023-08-12T14:46:58;27.90;58.00
58933;DHT22;44716;51.022;6.818;2023-08-12T14:49:24;27.80;57.90
58933;DHT22;44716;51.022;6.818;2023-08-12T14:51:49;27.90;57.50
58933;DHT22;44716;51.022;6.818;2023-08-12T14:54:15;28.00;57.00
58933;DHT22;44716;51.022;6.818;2023-08-12T14:56:40;27.90;56.40
58933;DHT22;44716;51.022;6.818;2023-08-12T14:59:06;28.00;56.40
58933;DHT22;44716;51.022;6.818;2023-08-12T15:01:32;28.00;56.00
58933;DHT22;44716;51.022;6.818;2023-08-12T15:03:57;27.90;56.20
58933;DHT22;44716;51.022;6.818;2023-08-12T15:06:23;28.00;56.10
58933;DHT22;44716;51.022;6.818;2023-08-12T15:08:48;28.10;56.00
58933;DHT22;44716;51.022;6.818;2023-08-12T15:11:14;28.10;56.00
58933;DHT22;44716;51.022;6.818;2023-08-12T15:13:40;28.10;55.90
58933;DHT22;44716;51.022;6.818;2023-08-12T15:16:05;28.20;56.30
58933;DHT22;44716;51.022;6.818;2023-08-12T15:18:31;28.30;56.20
58933;DHT22;44716;51.022;6.818;2023-08-12T15:20:56;28.30;56.10
58933;DHT22;44716;51.022;6.818;2023-08-12T15:23:22;28.30;55.90
58933;DHT22;44716;51.022;6.818;2023-08-12T15:25:47;28.30;56.10